Time;durP1;ratioP1;P1;durP2;ratioP2;P2;SDS_P1;SDS_P2;PMS_P1;PMS_P2;Temp;Humidity;BMP_temperature;BMP_pressure;BME280_temperature;BME280_humidity;BME280_pressure;Samples;Min_cycle;Max_cycle;Signal;HPM_P1;HPM_P2
2022/11/13 00:01:23;;;;;;;;;;;;;;;20.13;47.85;102317.91;5127082;27;19984;-38
2022/11/13 00:03:49;;;;;;;;;;;;;;;20.12;46.95;102316.19;5132610;27;19997;-38
2022/11/13 00:06:15;;;;;;;;;;;;;;;20.11;46.89;102320.91;5129321;27;19930;-38
2022/11/13 00:08:40;;;;;;;;;;;;;;;20.12;47.02;102317.06;5132695;27;20463;-37
2022/11/13 00:11:07;;;;;;;;;;;;;;;20.12;47.76;102306.00;5121215;27;20209;-37
2022/11/13 00:13:33;;;;;;;;;;;;;;;20.12;47.85;102307.91;5126805;27;20018;-39
2022/11/13 00:15:59;;;;;;;;;;;;;;;20.12;47.84;102306.00;5126109;27;20005;-39
2022/11/13 00:18:25;;;;;;;;;;;;;;;20.12;47.44;102300.47;5128561;27;19959;-38
2022/11/13 00:20:51;;;;;;;;;;;;;;;20.12;47.74;102306.00;5129738;27;20424;-39
2022/11/13 00:23:16;;;;;;;;;;;;;;;20.11;47.71;102301.53;5127634;27;19932;-37
2022/11/13 00:25:42;;;;;;;;;;;;;;;20.11;47.92;102296.00;5128636;27;19931;-38
2022/11/13 00:28:07;;;;;;;;;;;;;;;20.13;47.71;102301.31;5129873;27;19985;-39
2022/11/13 00:30:33;;;;;;;;;;;;;;;20.13;47.79;102301.31;5123766;27;20276;-38
2022/11/13 00:32:58;;;;;;;;;;;;;;;20.12;47.91;102297.69;5126179;27;19931;-38
2022/11/13 00:35:24;;;;;;;;;;;;;;;20.13;47.59;102290.25;5125512;27;19931;-39
2022/11/13 00:37:49;;;;;;;;;;;;;;;20.12;48.04;102294.06;5128848;27;19923;-39
2022/11/13 00:40:15;;;;;;;;;;;;;;;20.13;47.94;102296.59;5131275;27;19927;-39
2022/11/13 00:42:41;;;;;;;;;;;;;;;20.13;47.88;102296.59;5122851;27;20192;-39
2022/11/13 00:45:07;;;;;;;;;;;;;;;20.12;47.85;102292.16;5139450;27;19976;-37
2022/11/13 00:47:33;;;;;;;;;;;;;;;20.13;47.85;102295.78;5135576;27;19970;-39
2022/11/13 00:49:59;;;;;;;;;;;;;;;20.12;47.94;102297.69;5128886;27;19924;-38
2022/11/13 00:52:24;;;;;;;;;;;;;;;20.12;47.94;102289.41;5121202;27;19981;-38
2022/11/13 00:54:50;;;;;;;;;;;;;;;20.12;47.88;102291.31;5133995;27;19946;-39
2022/11/13 00:57:15;;;;;;;;;;;;;;;20.13;47.78;102284.72;5135054;27;19927;-37
2022/11/13 00:59:41;;;;;;;;;;;;;;;20.12;47.85;102281.09;5125707;27;19939;-39
2022/11/13 01:02:06;;;;;;;;;;;;;;;20.12;48.10;102278.34;5120046;27;19924;-38
2022/11/13 01:04:32;;;;;;;;;;;;;;;20.12;48.04;102285.78;5141447;27;19923;-39
2022/11/13 01:06:58;;;;;;;;;;;;;;;20.12;47.69;102275.56;5127229;27;19953;-39
2022/11/13 01:09:23;;;;;;;;;;;;;;;20.12;47.83;102275.56;5126286;27;19976;-38
2022/11/13 01:11:49;;;;;;;;;;;;;;;20.12;47.96;102274.72;5123542;27;19996;-39
2022/11/13 01:14:14;;;;;;;;;;;;;;;20.13;47.93;102279.19;5120058;27;19931;-40
2022/11/13 01:16:40;;;;;;;;;;;;;;;20.12;48.04;102274.72;5134815;27;21360;-38
2022/11/13 01:19:05;;;;;;;;;;;;;;;20.11;47.77;102268.34;5127508;27;19934;-39
2022/11/13 01:21:31;;;;;;;;;;;;;;;20.12;47.92;102272.81;5128696;27;19934;-37
2022/11/13 01:23:57;;;;;;;;;;;;;;;20.11;46.78;102264.75;5125315;27;19932;-38
2022/11/13 01:26:24;;;;;;;;;;;;;;;20.12;47.79;102267.28;5122753;27;20463;-38
2022/11/13 01:28:49;;;;;;;;;;;;;;;20.12;47.88;102256.22;5127501;27;20369;-41
2022/11/13 01:31:16;;;;;;;;;;;;;;;20.12;47.87;102252.59;5127917;27;19923;-40
2022/11/13 01:33:42;;;;;;;;;;;;;;;20.12;48.02;102253.44;5132580;27;20347;-39
2022/11/13 01:36:10;;;;;;;;;;;;;;;20.12;47.71;102247.91;5123186;27;20022;-39
2022/11/13 01:38:36;;;;;;;;;;;;;;;20.11;47.94;102243.44;5133554;27;19966;-40
2022/11/13 01:41:03;;;;;;;;;;;;;;;20.11;47.94;102240.69;5118534;27;20402;-39
2022/11/13 01:43:30;;;;;;;;;;;;;;;20.12;47.91;102239.63;5131577;27;19962;-39
2022/11/13 01:45:59;;;;;;;;;;;;;;;20.12;47.88;102244.28;5130549;27;20034;-38
2022/11/13 01:48:25;;;;;;;;;;;;;;;20.12;48.02;102238.75;5123589;27;19967;-38
2022/11/13 01:50:51;;;;;;;;;;;;;;;20.10;46.54;102236.25;5125812;27;19927;-38
2022/11/13 01:53:17;;;;;;;;;;;;;;;20.11;47.55;102229.63;5130232;27;19929;-39
2022/11/13 01:55:43;;;;;;;;;;;;;;;20.11;47.21;102232.38;5128908;27;20022;-37
2022/11/13 01:58:08;;;;;;;;;;;;;;;20.10;46.47;102225.19;5133649;27;20105;-38
2022/11/13 02:00:34;;;;;;;;;;;;;;;20.11;47.67;102231.56;5127293;27;19930;-38
2022/11/13 02:02:59;;;;;;;;;;;;;;;20.11;47.42;102224.09;5118345;27;19932;-39
2022/11/13 02:05:25;;;;;;;;;;;;;;;20.10;47.72;102216.91;5122426;27;19968;-38
2022/11/13 02:07:50;;;;;;;;;;;;;;;20.11;47.32;102220.50;5131994;27;19923;-39
2022/11/13 02:10:16;;;;;;;;;;;;;;;20.10;46.81;102214.13;5132854;27;19938;-39
2022/11/13 02:12:42;;;;;;;;;;;;;;;20.11;47.87;102218.56;5126921;27;19955;-39
2022/11/13 02:15:08;;;;;;;;;;;;;;;20.12;47.69;102211.97;5129327;27;19984;-38
2022/11/13 02:17:36;;;;;;;;;;;;;;;20.11;47.76;102210.25;5122900;27;19923;-39
2022/11/13 02:20:04;;;;;;;;;;;;;;;20.11;47.63;102203.91;5126246;27;20446;-39
2022/11/13 02:22:49;;;;;;;;;;;;;;;20.11;47.68;102204.72;5122870;27;20026;-38
2022/11/13 02:25:15;;;;;;;;;;;;;;;20.10;46.61;102207.78;5122805;27;20395;-39
2022/11/13 02:27:41;;;;;;;;;;;;;;;20.10;46.67;102194.78;5127050;27;19931;-38
2022/11/13 02:30:23;;;;;;;;;;;;;;;20.10;47.81;102203.06;5127492;27;19962;-39
2022/11/13 02:32:53;;;;;;;;;;;;;;;20.11;47.71;102203.91;5120971;27;20096;-39
2022/11/13 02:35:26;;;;;;;;;;;;;;;20.10;46.85;102208.59;5124355;27;20320;-38
2022/11/13 02:37:51;;;;;;;;;;;;;;;20.11;47.87;102209.44;5125336;27;20012;-39
2022/11/13 02:40:17;;;;;;;;;;;;;;;20.10;46.85;102200.31;5139027;27;20348;-38
2022/11/13 02:42:43;;;;;;;;;;;;;;;20.11;47.84;102201.97;5124824;27;19923;-39
2022/11/13 02:45:08;;;;;;;;;;;;;;;20.10;47.51;102196.72;5126637;27;19923;-37
2022/11/13 02:47:34;;;;;;;;;;;;;;;20.10;47.21;102199.47;5132713;27;19924;-38
2022/11/13 02:50:00;;;;;;;;;;;;;;;20.11;47.91;102196.44;5119725;27;19932;-39
2022/11/13 02:52:25;;;;;;;;;;;;;;;20.11;47.85;102198.38;5118874;27;20295;-37
2022/11/13 02:54:51;;;;;;;;;;;;;;;20.11;46.82;102190.06;5133462;27;19934;-38
2022/11/13 02:57:16;;;;;;;;;;;;;;;20.11;47.61;102190.06;5135658;27;19930;-37
2022/11/13 02:59:42;;;;;;;;;;;;;;;20.11;47.69;102192.84;5129737;27;19947;-40
2022/11/13 03:02:07;;;;;;;;;;;;;;;20.10;47.03;102191.19;5124657;27;20100;-39
2022/11/13 03:04:33;;;;;;;;;;;;;;;20.11;47.91;102185.38;5140725;27;20244;-39
2022/11/13 03:07:19;;;;;;;;;;;;;;;20.10;46.17;102191.19;5130984;27;19924;-39
2022/11/13 03:09:44;;;;;;;;;;;;;;;20.10;47.24;102192.00;5127616;27;19983;-38
2022/11/13 03:12:10;;;;;;;;;;;;;;;20.10;47.83;102189.25;5121179;27;19963;-39
2022/11/13 03:14:35;;;;;;;;;;;;;;;20.10;47.76;102192.00;5131327;27;19923;-39
2022/11/13 03:17:01;;;;;;;;;;;;;;;20.10;47.81;102193.94;5134388;27;19924;-39
2022/11/13 03:19:27;;;;;;;;;;;;;;;20.10;47.14;102185.66;5135002;27;20017;-38
2022/11/13 03:21:52;;;;;;;;;;;;;;;20.10;47.60;102177.34;5119249;27;19923;-38
2022/11/13 03:24:18;;;;;;;;;;;;;;;20.11;47.67;102181.78;5118898;27;19928;-38
2022/11/13 03:26:43;;;;;;;;;;;;;;;20.11;47.72;102179.00;5124468;27;19923;-38
2022/11/13 03:29:09;;;;;;;;;;;;;;;20.10;47.61;102180.13;5134320;27;19934;-39
2022/11/13 03:31:34;;;;;;;;;;;;;;;20.10;47.88;102186.47;5129288;27;19976;-39
2022/11/13 03:34:00;;;;;;;;;;;;;;;20.11;48.04;102184.53;5133638;27;19939;-39
2022/11/13 03:36:25;;;;;;;;;;;;;;;20.10;47.97;102180.94;5123789;27;20394;-38
2022/11/13 03:38:51;;;;;;;;;;;;;;;20.10;47.87;102178.19;5130604;27;19923;-39
2022/11/13 03:41:17;;;;;;;;;;;;;;;20.11;47.96;102176.25;5121851;27;19928;-38
2022/11/13 03:43:42;;;;;;;;;;;;;;;20.11;47.98;102179.84;5127028;27;19955;-38
2022/11/13 03:46:08;;;;;;;;;;;;;;;20.11;47.66;102179.84;5131613;27;20371;-39
2022/11/13 03:48:33;;;;;;;;;;;;;;;20.11;47.85;102176.25;5129318;27;20951;-38
2022/11/13 03:50:59;;;;;;;;;;;;;;;20.11;48.01;102181.78;5128787;27;19931;-38
2022/11/13 03:53:24;;;;;;;;;;;;;;;20.11;47.71;102165.19;5124659;27;19931;-38
2022/11/13 03:55:51;;;;;;;;;;;;;;;20.11;47.78;102170.72;5126324;27;19930;-39
2022/11/13 03:58:16;;;;;;;;;;;;;;;20.11;47.97;102168.78;5120358;27;20415;-39
2022/11/13 04:00:42;;;;;;;;;;;;;;;20.10;47.94;102169.88;5128807;27;20391;-39
2022/11/13 04:03:07;;;;;;;;;;;;;;;20.10;47.39;102167.13;5128591;27;19928;-39
2022/11/13 04:05:33;;;;;;;;;;;;;;;20.11;47.84;102163.25;5126762;27;19988;-39
2022/11/13 04:07:59;;;;;;;;;;;;;;;20.12;47.96;102164.09;5130156;27;19932;-39
2022/11/13 04:10:24;;;;;;;;;;;;;;;20.11;47.97;102163.25;5124673;27;19927;-39
2022/11/13 04:12:50;;;;;;;;;;;;;;;20.11;47.72;102157.72;5123960;27;19927;-39
2022/11/13 04:15:16;;;;;;;;;;;;;;;20.10;47.72;102158.00;5136945;27;20367;-39
2022/11/13 04:17:41;;;;;;;;;;;;;;;20.11;47.63;102156.88;5131540;27;19924;-39
2022/11/13 04:20:07;;;;;;;;;;;;;;;20.10;47.70;102158.81;5129764;27;20447;-39
2022/11/13 04:22:33;;;;;;;;;;;;;;;20.10;47.75;102153.28;5127546;27;19935;-40
2022/11/13 04:24:58;;;;;;;;;;;;;;;20.11;47.93;102151.34;5121369;27;20026;-39
2022/11/13 04:27:24;;;;;;;;;;;;;;;20.11;47.70;102148.59;5124656;27;19938;-38
2022/11/13 04:29:49;;;;;;;;;;;;;;;20.10;47.93;102136.69;5131467;27;20379;-39
2022/11/13 04:32:15;;;;;;;;;;;;;;;20.10;47.88;102133.94;5125717;27;20030;-39
2022/11/13 04:34:40;;;;;;;;;;;;;;;20.11;47.90;102137.53;5130335;27;19949;-38
2022/11/13 04:37:06;;;;;;;;;;;;;;;20.11;47.76;102132.00;5127374;27;19946;-38
2022/11/13 04:39:31;;;;;;;;;;;;;;;20.10;48.07;102135.88;5130005;27;19924;-38
2022/11/13 04:44:42;;;;;;;;;;;;;;;20.10;47.92;102133.94;5121843;27;20031;-39
2022/11/13 04:47:08;;;;;;;;;;;;;;;20.11;47.76;102137.53;5123856;27;20364;-39
2022/11/13 04:49:33;;;;;;;;;;;;;;;20.10;47.75;102142.22;5126269;27;19935;-37
2022/11/13 04:51:59;;;;;;;;;;;;;;;20.10;47.76;102142.22;5132809;27;19924;-39
2022/11/13 04:54:25;;;;;;;;;;;;;;;20.10;47.69;102138.63;5131663;27;20394;-39
2022/11/13 04:56:54;;;;;;;;;;;;;;;20.10;47.70;102135.88;5127155;27;19927;-40
2022/11/13 04:59:19;;;;;;;;;;;;;;;20.10;47.87;102136.69;5121673;27;19934;-40
2022/11/13 05:01:45;;;;;;;;;;;;;;;20.10;47.96;102128.41;5123257;27;19964;-39
2022/11/13 05:04:11;;;;;;;;;;;;;;;20.11;47.83;102137.53;5128043;27;19970;-38
2022/11/13 05:06:36;;;;;;;;;;;;;;;20.10;47.67;102128.41;5126923;27;19932;-38
2022/11/13 05:09:02;;;;;;;;;;;;;;;20.09;47.75;102123.97;5122753;27;19924;-38
2022/11/13 05:11:28;;;;;;;;;;;;;;;20.10;47.63;102133.94;5125031;27;19951;-38
2022/11/13 05:13:53;;;;;;;;;;;;;;;20.11;47.72;102129.22;5119770;27;19927;-39
2022/11/13 05:16:19;;;;;;;;;;;;;;;20.10;47.70;102124.81;5130751;27;19927;-38
2022/11/13 05:18:44;;;;;;;;;;;;;;;20.10;47.86;102124.81;5134692;27;19923;-38
2022/11/13 05:21:10;;;;;;;;;;;;;;;20.10;47.71;102125.63;5129885;27;20169;-39
2022/11/13 05:23:35;;;;;;;;;;;;;;;20.10;47.90;102122.88;5124443;27;19923;-39
2022/11/13 05:26:06;;;;;;;;;;;;;;;20.10;47.93;102119.28;5130519;27;19927;-38
2022/11/13 05:28:31;;;;;;;;;;;;;;;20.10;47.69;102111.81;5122338;27;19966;-38
2022/11/13 05:31:13;;;;;;;;;;;;;;;20.10;47.63;102108.22;5121672;27;19932;-39
2022/11/13 05:33:39;;;;;;;;;;;;;;;20.10;47.86;102113.75;5133693;27;20006;-38
2022/11/13 05:36:06;;;;;;;;;;;;;;;20.10;47.76;102097.16;5123108;27;20294;-39
2022/11/13 05:38:32;;;;;;;;;;;;;;;20.09;47.70;102099.09;5117348;27;20067;-39
2022/11/13 05:41:01;;;;;;;;;;;;;;;20.10;47.67;102091.63;5126851;27;20409;-37
2022/11/13 05:43:27;;;;;;;;;;;;;;;20.09;47.82;102095.47;5131152;27;20398;-38
2022/11/13 05:45:57;;;;;;;;;;;;;;;20.09;47.96;102099.09;5121797;27;19968;-39
2022/11/13 05:48:23;;;;;;;;;;;;;;;20.10;47.91;102099.91;5131677;27;19966;-38
2022/11/13 05:50:48;;;;;;;;;;;;;;;20.10;47.92;102089.69;5119902;27;19996;-38
2022/11/13 05:53:14;;;;;;;;;;;;;;;20.10;47.79;102097.16;5131031;27;19931;-38
2022/11/13 05:55:40;;;;;;;;;;;;;;;20.09;47.74;102088.03;5122064;27;20291;-38
2022/11/13 05:58:05;;;;;;;;;;;;;;;20.10;47.82;102086.09;5130685;27;20385;-39
2022/11/13 06:00:31;;;;;;;;;;;;;;;20.10;47.63;102083.31;5122818;27;19930;-38
2022/11/13 06:02:56;;;;;;;;;;;;;;;20.10;47.74;102083.31;5129338;27;19923;-38
2022/11/13 06:05:22;;;;;;;;;;;;;;;20.10;47.63;102078.63;5124057;27;19927;-38
2022/11/13 06:07:48;;;;;;;;;;;;;;;20.10;47.64;102078.63;5128623;27;19924;-38
2022/11/13 06:10:13;;;;;;;;;;;;;;;20.10;47.94;102072.25;5123001;27;20482;-37
2022/11/13 06:12:39;;;;;;;;;;;;;;;20.09;47.66;102065.91;5127168;27;19976;-39
2022/11/13 06:15:05;;;;;;;;;;;;;;;20.09;47.60;102071.44;5134753;27;19946;-37
2022/11/13 06:17:30;;;;;;;;;;;;;;;20.09;47.62;102062.31;5130486;27;19928;-38
2022/11/13 06:19:56;;;;;;;;;;;;;;;20.09;47.81;102057.59;5131246;27;19923;-39
2022/11/13 06:22:21;;;;;;;;;;;;;;;20.10;47.70;102061.19;5128761;27;20402;-39
2022/11/13 06:24:47;;;;;;;;;;;;;;;20.10;47.57;102058.44;5130704;27;19939;-38
2022/11/13 06:27:12;;;;;;;;;;;;;;;20.09;47.74;102054.00;5130027;27;19929;-38
2022/11/13 06:29:38;;;;;;;;;;;;;;;20.09;47.70;102052.06;5131001;27;20379;-38
2022/11/13 06:32:03;;;;;;;;;;;;;;;20.09;47.86;102048.47;5130226;27;19923;-38
2022/11/13 06:34:29;;;;;;;;;;;;;;;20.10;47.55;102042.66;5126490;27;19936;-39
2022/11/13 06:36:54;;;;;;;;;;;;;;;20.10;47.77;102045.44;5131069;27;19924;-38
2022/11/13 06:39:20;;;;;;;;;;;;;;;20.09;47.74;102041.00;5124200;27;20383;-39
2022/11/13 06:41:46;;;;;;;;;;;;;;;20.09;47.98;102041.00;5136552;27;19995;-39
2022/11/13 06:44:11;;;;;;;;;;;;;;;20.09;47.63;102040.19;5124188;27;20375;-39
2022/11/13 06:46:37;;;;;;;;;;;;;;;20.10;47.58;102048.19;5128726;27;19924;-38
2022/11/13 06:49:02;;;;;;;;;;;;;;;20.10;47.86;102044.59;5119320;27;19923;-38
2022/11/13 06:51:29;;;;;;;;;;;;;;;20.10;47.72;102044.59;5128173;27;20268;-39
2022/11/13 06:53:54;;;;;;;;;;;;;;;20.09;47.65;102046.53;5130406;27;20409;-39
2022/11/13 06:56:20;;;;;;;;;;;;;;;20.09;47.61;102051.25;5129259;27;19927;-39
2022/11/13 06:58:45;;;;;;;;;;;;;;;20.09;47.63;102046.53;5132281;27;19927;-39
2022/11/13 07:01:12;;;;;;;;;;;;;;;20.10;47.60;102044.59;5129798;27;19923;-41
2022/11/13 07:03:38;;;;;;;;;;;;;;;20.10;47.86;102047.38;5135140;27;20302;-38
2022/11/13 07:06:04;;;;;;;;;;;;;;;20.09;47.65;102043.78;5123078;27;19924;-38
2022/11/13 07:08:29;;;;;;;;;;;;;;;20.09;47.54;102043.78;5130740;27;20260;-39
2022/11/13 07:10:56;;;;;;;;;;;;;;;20.08;47.70;102036.56;5129364;27;19932;-38
2022/11/13 07:13:22;;;;;;;;;;;;;;;20.09;47.81;102035.47;5128550;27;19924;-39
2022/11/13 07:15:47;;;;;;;;;;;;;;;20.09;47.64;102043.78;5130014;27;19988;-38
2022/11/13 07:18:13;;;;;;;;;;;;;;;20.09;47.86;102043.78;5132443;27;19939;-38
2022/11/13 07:20:38;;;;;;;;;;;;;;;20.09;47.89;102045.72;5123275;27;19929;-39
2022/11/13 07:23:04;;;;;;;;;;;;;;;20.09;47.57;102037.41;5129329;27;20292;-39
2022/11/13 07:25:30;;;;;;;;;;;;;;;20.09;47.64;102038.25;5118518;27;19976;-39
2022/11/13 07:27:55;;;;;;;;;;;;;;;20.09;47.56;102034.66;5131389;27;19950;-39
2022/11/13 07:30:21;;;;;;;;;;;;;;;20.09;47.66;102037.41;5133610;27;20267;-39
2022/11/13 07:32:46;;;;;;;;;;;;;;;20.09;47.75;102034.66;5131197;27;19927;-39
2022/11/13 07:35:12;;;;;;;;;;;;;;;20.08;47.65;102025.50;5130468;27;19923;-39
2022/11/13 07:37:37;;;;;;;;;;;;;;;20.09;47.63;102031.88;5130333;27;20470;-38
2022/11/13 07:40:03;;;;;;;;;;;;;;;20.08;47.56;102024.66;5133502;27;20375;-39
2022/11/13 07:42:29;;;;;;;;;;;;;;;20.09;47.53;102029.13;5124496;27;19942;-39
2022/11/13 07:44:54;;;;;;;;;;;;;;;20.09;47.46;102034.66;5137866;27;19950;-39
2022/11/13 07:47:21;;;;;;;;;;;;;;;20.09;47.58;102029.13;5129106;27;19932;-38
2022/11/13 07:49:46;;;;;;;;;;;;;;;20.08;47.89;102022.75;5130216;27;19942;-38
2022/11/13 07:52:12;;;;;;;;;;;;;;;20.08;47.80;102022.75;5124978;27;19935;-39
2022/11/13 07:54:37;;;;;;;;;;;;;;;20.09;47.61;102023.59;5128883;27;19950;-38
2022/11/13 07:57:03;;;;;;;;;;;;;;;20.08;47.55;102022.75;5131136;27;19924;-38
2022/11/13 07:59:28;;;;;;;;;;;;;;;20.08;47.62;102017.22;5132908;27;20356;-38
2022/11/13 08:01:54;;;;;;;;;;;;;;;20.09;47.68;102021.66;5119842;27;19927;-38
2022/11/13 08:04:19;;;;;;;;;;;;;;;20.09;47.80;102010.59;5132091;27;19934;-38
2022/11/13 08:06:45;;;;;;;;;;;;;;;20.08;47.57;102006.16;5125307;27;20291;-37
2022/11/13 08:09:11;;;;;;;;;;;;;;;20.08;47.71;101997.88;5124393;27;19935;-39
2022/11/13 08:11:36;;;;;;;;;;;;;;;20.07;47.49;102010.00;5133703;27;19928;-38
2022/11/13 08:14:02;;;;;;;;;;;;;;;20.09;47.49;102009.75;5135779;27;19934;-40
2022/11/13 08:16:27;;;;;;;;;;;;;;;20.08;47.63;102011.69;5124453;27;19928;-37
2022/11/13 08:18:53;;;;;;;;;;;;;;;20.08;47.87;102008.94;5127671;27;19932;-37
2022/11/13 08:21:20;;;;;;;;;;;;;;;20.08;47.61;102000.63;5128831;27;19938;-38
2022/11/13 08:23:45;;;;;;;;;;;;;;;20.08;47.52;101997.88;5125764;27;19970;-39
2022/11/13 08:26:11;;;;;;;;;;;;;;;20.07;46.45;102001.69;5126558;27;19928;-39
2022/11/13 08:28:36;;;;;;;;;;;;;;;20.08;47.79;102003.41;5132632;27;19934;-40
2022/11/13 08:31:02;;;;;;;;;;;;;;;20.07;47.59;101998.94;5135608;27;20276;-37
2022/11/13 08:33:28;;;;;;;;;;;;;;;20.08;47.52;101992.34;5129314;27;19927;-38
2022/11/13 08:35:54;;;;;;;;;;;;;;;20.08;47.63;102005.28;5120033;27;19924;-38
2022/11/13 08:38:20;;;;;;;;;;;;;;;20.06;46.71;101997.28;5126964;27;19963;-39
2022/11/13 08:40:45;;;;;;;;;;;;;;;20.07;47.34;101995.34;5123263;27;19923;-40
2022/11/13 08:43:11;;;;;;;;;;;;;;;20.07;47.13;101992.56;5128334;27;19928;-38
2022/11/13 08:45:36;;;;;;;;;;;;;;;20.07;47.13;101984.28;5130267;27;19923;-39
2022/11/13 08:48:02;;;;;;;;;;;;;;;20.07;47.54;101982.34;5130788;27;19927;-38
2022/11/13 08:50:28;;;;;;;;;;;;;;;20.07;47.42;101982.34;5128360;27;19924;-38
2022/11/13 08:52:54;;;;;;;;;;;;;;;20.07;47.19;101982.34;5121252;27;19935;-39
2022/11/13 08:55:20;;;;;;;;;;;;;;;20.07;46.35;101970.44;5121928;27;19965;-39
2022/11/13 08:57:45;;;;;;;;;;;;;;;20.07;47.12;101962.97;5135035;27;19984;-37
2022/11/13 09:00:11;;;;;;;;;;;;;;;20.07;47.54;101962.97;5125583;27;19934;-39
2022/11/13 09:02:36;;;;;;;;;;;;;;;20.06;47.38;101958.56;5122265;27;19989;-37
2022/11/13 09:05:02;;;;;;;;;;;;;;;20.05;46.58;101954.97;5125426;27;20603;-39
2022/11/13 09:07:28;;;;;;;;;;;;;;;20.06;45.57;101947.50;5124472;27;19927;-38
2022/11/13 09:09:54;;;;;;;;;;;;;;;20.06;46.90;101950.25;5123782;27;19931;-38
2022/11/13 09:12:20;;;;;;;;;;;;;;;20.07;46.59;101960.22;5128036;27;19931;-36
2022/11/13 09:14:45;;;;;;;;;;;;;;;20.07;46.56;101949.16;5117284;27;19966;-37
2022/11/13 09:17:11;;;;;;;;;;;;;;;20.08;46.32;101952.75;5132720;27;19927;-39
2022/11/13 09:19:36;;;;;;;;;;;;;;;20.05;47.00;101943.91;5123160;27;20634;-36
2022/11/13 09:22:02;;;;;;;;;;;;;;;20.05;47.22;101941.13;5135868;27;19923;-39
2022/11/13 09:24:28;;;;;;;;;;;;;;;20.05;47.45;101938.38;5122624;27;19923;-38
2022/11/13 09:26:53;;;;;;;;;;;;;;;20.07;47.45;101940.88;5131191;27;19923;-38
2022/11/13 09:29:19;;;;;;;;;;;;;;;20.07;47.14;101949.16;5125344;27;19932;-37
2022/11/13 09:31:45;;;;;;;;;;;;;;;20.06;46.39;101939.19;5118542;27;20032;-38
2022/11/13 09:34:11;;;;;;;;;;;;;;;20.05;46.69;101938.38;5132573;27;19927;-37
2022/11/13 09:36:36;;;;;;;;;;;;;;;20.07;47.15;101934.50;5128405;27;21211;-38
2022/11/13 09:39:02;;;;;;;;;;;;;;;20.06;47.32;101928.13;5125529;27;19928;-38
2022/11/13 09:41:30;;;;;;;;;;;;;;;20.05;46.72;101924.53;5126963;27;19963;-37
2022/11/13 09:43:58;;;;;;;;;;;;;;;20.05;45.62;101924.53;5124351;27;19954;-39
2022/11/13 09:46:45;;;;;;;;;;;;;;;20.07;45.87;101932.56;5125236;27;20202;-38
2022/11/13 09:49:12;;;;;;;;;;;;;;;20.07;45.89;101926.22;5128386;27;19971;-37
2022/11/13 09:51:38;;;;;;;;;;;;;;;20.05;45.97;101927.31;5130426;27;19974;-39
2022/11/13 09:54:05;;;;;;;;;;;;;;;20.04;45.58;101928.41;5132742;27;19983;-39
2022/11/13 09:56:32;;;;;;;;;;;;;;;20.05;47.29;101930.06;5128450;27;19963;-37
2022/11/13 09:58:59;;;;;;;;;;;;;;;20.05;45.70;101920.94;5130770;27;19954;-38
2022/11/13 10:01:28;;;;;;;;;;;;;;;20.03;45.73;101926.75;5126671;27;20069;-38
2022/11/13 10:03:56;;;;;;;;;;;;;;;20.06;47.23;101919.84;5134700;27;19923;-37
2022/11/13 10:06:33;;;;;;;;;;;;;;;20.06;47.24;101919.84;5123909;27;20283;-38
2022/11/13 10:09:00;;;;;;;;;;;;;;;20.07;47.51;101909.63;5128382;27;20378;-38
2022/11/13 10:11:45;;;;;;;;;;;;;;;20.03;45.33;101910.16;5132470;27;20345;-39
2022/11/13 10:14:15;;;;;;;;;;;;;;;20.04;45.44;101911.00;5128368;27;19984;-38
2022/11/13 10:16:58;;;;;;;;;;;;;;;20.05;45.75;101921.78;5124918;27;20394;-37
2022/11/13 10:19:26;;;;;;;;;;;;;;;20.05;45.78;101910.72;5125549;27;19963;-37
2022/11/13 10:22:00;;;;;;;;;;;;;;;20.04;45.21;101913.75;5136170;27;19970;-39
2022/11/13 10:24:46;;;;;;;;;;;;;;;20.04;45.93;101911.81;5125848;27;20209;-37
2022/11/13 10:27:12;;;;;;;;;;;;;;;20.04;46.10;101908.22;5124250;27;19931;-38
2022/11/13 10:29:38;;;;;;;;;;;;;;;20.04;46.41;101899.94;5124613;27;19967;-36
2022/11/13 10:32:13;;;;;;;;;;;;;;;20.05;47.49;101905.19;5134296;27;19934;-39
2022/11/13 10:34:39;;;;;;;;;;;;;;;20.04;45.71;101892.47;5130448;27;19988;-38
2022/11/13 10:37:25;;;;;;;;;;;;;;;20.02;45.69;101894.66;5124435;27;19923;-38
2022/11/13 10:39:51;;;;;;;;;;;;;;;20.03;46.15;101892.72;5131319;27;20027;-39
2022/11/13 10:42:21;;;;;;;;;;;;;;;20.02;45.35;101891.88;5120176;27;19924;-38
2022/11/13 10:45:01;;;;;;;;;;;;;;;20.04;47.16;101886.94;5120529;27;19978;-38
2022/11/13 10:47:28;;;;;;;;;;;;;;;20.04;45.77;101886.94;5116502;27;20204;-37
2022/11/13 10:50:22;;;;;;;;;;;;;;;20.04;46.35;101875.88;5111298;27;19931;-39
2022/11/13 10:52:48;;;;;;;;;;;;;;;20.04;46.96;101883.34;5132643;27;20019;-39
2022/11/13 10:55:34;;;;;;;;;;;;;;;20.03;45.47;101876.97;5141036;27;19971;-38
2022/11/13 10:58:00;;;;;;;;;;;;;;;20.04;45.82;101873.13;5130959;27;20008;-37
2022/11/13 11:00:34;;;;;;;;;;;;;;;20.03;45.52;101865.06;5126744;27;19959;-37
2022/11/13 11:03:00;;;;;;;;;;;;;;;20.04;45.69;101875.88;5129761;27;19974;-36
2022/11/13 11:05:25;;;;;;;;;;;;;;;20.04;45.84;101869.50;5128647;27;19930;-37
2022/11/13 11:07:52;;;;;;;;;;;;;;;20.03;46.63;101863.16;5138723;27;20385;-39
2022/11/13 11:10:19;;;;;;;;;;;;;;;20.04;46.16;101850.16;5125111;27;19932;-38
2022/11/13 11:13:02;;;;;;;;;;;;;;;20.03;45.78;101849.34;5129278;27;20018;-37
2022/11/13 11:15:35;;;;;;;;;;;;;;;20.03;46.55;101857.63;5127179;27;20196;-37
2022/11/13 11:18:01;;;;;;;;;;;;;;;20.03;46.30;101848.47;5128775;27;19959;-37
2022/11/13 11:20:43;;;;;;;;;;;;;;;20.01;45.75;101845.97;5129946;27;19975;-39
2022/11/13 11:23:29;;;;;;;;;;;;;;;20.03;46.46;101841.03;5134125;27;19966;-38
2022/11/13 11:25:56;;;;;;;;;;;;;;;20.03;46.06;101843.81;5126329;27;20378;-36
2022/11/13 11:28:26;;;;;;;;;;;;;;;20.03;45.59;101835.50;5132325;27;19959;-38
2022/11/13 11:30:52;;;;;;;;;;;;;;;20.03;46.86;101829.97;5131530;27;19974;-39
2022/11/13 11:33:22;;;;;;;;;;;;;;;20.03;46.38;101821.69;5126337;27;19976;-39
2022/11/13 11:35:49;;;;;;;;;;;;;;;20.04;45.72;101816.97;5131345;27;19970;-39
2022/11/13 11:38:18;;;;;;;;;;;;;;;20.03;45.60;101815.28;5125508;27;19973;-38
2022/11/13 11:40:45;;;;;;;;;;;;;;;20.03;45.40;101818.06;5129015;27;20344;-38
2022/11/13 11:43:16;;;;;;;;;;;;;;;20.04;46.73;101816.97;5132042;27;19962;-37
2022/11/13 11:45:42;;;;;;;;;;;;;;;20.02;46.43;101803.41;5123651;27;19962;-36
2022/11/13 11:48:10;;;;;;;;;;;;;;;20.02;46.07;101810.88;5124697;27;19939;-38
2022/11/13 11:50:48;;;;;;;;;;;;;;;20.03;45.60;101807.84;5124755;27;20442;-38
2022/11/13 11:53:16;;;;;;;;;;;;;;;20.02;45.58;101795.09;5125615;27;20351;-39
2022/11/13 11:55:48;;;;;;;;;;;;;;;20.03;45.47;101798.69;5132026;27;19985;-36
2022/11/13 11:58:17;;;;;;;;;;;;;;;20.02;45.82;101786.81;5129884;27;20022;-38
2022/11/13 12:00:47;;;;;;;;;;;;;;;20.01;45.31;101784.31;5131218;27;20404;-38
2022/11/13 12:03:32;;;;;;;;;;;;;;;20.00;45.17;101780.72;5126687;27;19969;-39
2022/11/13 12:06:03;;;;;;;;;;;;;;;20.01;45.58;101779.63;5117628;27;20429;-39
2022/11/13 12:08:49;;;;;;;;;;;;;;;20.02;45.36;101775.75;5131700;27;20531;-38
2022/11/13 12:11:18;;;;;;;;;;;;;;;20.01;45.15;101776.84;5118254;27;19966;-38
2022/11/13 12:13:47;;;;;;;;;;;;;;;20.01;45.25;101768.56;5123468;27;19959;-38
2022/11/13 12:16:33;;;;;;;;;;;;;;;20.01;45.37;101763.03;5128623;27;19978;-38
2022/11/13 12:19:18;;;;;;;;;;;;;;;20.03;45.34;101760.00;5125135;27;19963;-39
2022/11/13 12:22:02;;;;;;;;;;;;;;;20.04;44.86;101756.16;5124257;27;19966;-36
2022/11/13 12:24:34;;;;;;;;;;;;;;;20.02;45.08;101752.81;5129062;27;19966;-36
2022/11/13 12:27:20;;;;;;;;;;;;;;;20.02;45.18;101750.03;5126050;27;19984;-39
2022/11/13 12:30:05;;;;;;;;;;;;;;;20.01;45.00;101746.44;5133016;27;19939;-38
2022/11/13 12:32:51;;;;;;;;;;;;;;;20.03;45.34;101732.34;5123045;27;19966;-38
2022/11/13 12:35:18;;;;;;;;;;;;;;;20.01;45.03;101731.78;5129169;27;19959;-38
2022/11/13 12:37:50;;;;;;;;;;;;;;;20.03;44.94;101727.66;5127323;27;20043;-37
2022/11/13 12:40:19;;;;;;;;;;;;;;;20.03;45.13;101721.28;5129129;27;19978;-39